Palos Verdes Estates, California
Current Conditions -  °F | °C
As of 4:53 PM on Friday 31 Oct 2014 (Local Time) from KHHR Reporting Station
Overcast Overcast  
Wind Chill: 68°   Ceiling: 5500
Heat Index: 68°   Visibility: 10mi
Dew Point: 59°   Wind: 7mph
Humidity: 73%   Direction: 270°W
Pressure: 29.86"   Gusts: NA
Location:  33.8°N, 118.39°W
Report Text: KHHR 312353Z 27006KT 10SM OVC055 20/15 A2986 RMK AO2 SLP111 T02000150 10211 20194 57010
Loading
Personal Weather Stations






























Interactive Weather Map
Tropical Storm Tracking
New forecast layout! Learn more

10-Day Weather Forecast

Advertisements
Track Severe Weather on mobile